createdAt,value
2024-01-14T00:02:29.889Z,38.93
2024-01-14T00:05:02.068Z,40.03
2024-01-14T00:07:34.217Z,38.43
2024-01-14T00:10:07.035Z,38.30
2024-01-14T00:12:39.154Z,38.27
2024-01-14T00:15:11.768Z,37.20
2024-01-14T00:17:43.906Z,38.27
2024-01-14T00:20:16.198Z,38.60
2024-01-14T00:22:48.575Z,39.67
2024-01-14T00:25:23.187Z,37.60
2024-01-14T00:27:55.147Z,36.57
2024-01-14T00:30:27.228Z,39.00
2024-01-14T00:32:59.318Z,37.77
2024-01-14T00:35:31.405Z,37.33
2024-01-14T00:38:03.735Z,36.40
2024-01-14T00:40:36.227Z,38.70
2024-01-14T00:43:08.226Z,36.33
2024-01-14T00:45:40.240Z,36.57
2024-01-14T00:48:12.576Z,37.83
2024-01-14T00:50:44.788Z,35.83
2024-01-14T00:53:16.758Z,37.00
2024-01-14T00:55:48.762Z,35.47
2024-01-14T00:58:20.766Z,37.73
2024-01-14T01:00:53.300Z,38.70
2024-01-14T01:03:25.451Z,37.23
2024-01-14T01:05:57.638Z,37.23
2024-01-14T01:08:29.614Z,39.23
2024-01-14T01:11:01.557Z,37.80
2024-01-14T01:13:33.528Z,37.63
2024-01-14T01:16:05.887Z,38.40
2024-01-14T01:18:38.139Z,35.87
2024-01-14T01:21:10.280Z,37.00
2024-01-14T01:23:42.303Z,37.67
2024-01-14T01:26:15.192Z,38.60
2024-01-14T01:28:47.235Z,38.60
2024-01-14T01:31:27.591Z,38.20
2024-01-14T01:34:06.904Z,36.07
2024-01-14T01:36:39.047Z,36.50
2024-01-14T01:39:11.110Z,36.13
2024-01-14T01:41:43.057Z,37.90
2024-01-14T01:44:15.026Z,36.20
2024-01-14T01:46:48.834Z,36.30
2024-01-14T01:49:21.625Z,37.50
2024-01-14T01:51:54.548Z,36.53
2024-01-14T01:54:29.666Z,35.93
2024-01-14T01:57:02.002Z,35.80
2024-01-14T01:59:34.972Z,36.33
2024-01-14T02:02:07.187Z,35.87
2024-01-14T02:04:39.975Z,37.13
2024-01-14T02:07:12.939Z,35.90
2024-01-14T02:09:44.869Z,36.43
2024-01-14T02:12:16.847Z,35.87
2024-01-14T02:14:48.951Z,36.40
2024-01-14T02:17:20.907Z,36.37
2024-01-14T02:19:52.976Z,35.47
2024-01-14T02:22:32.283Z,35.80
2024-01-14T02:25:05.219Z,36.03
2024-01-14T02:27:37.409Z,35.67
2024-01-14T02:30:11.288Z,36.03
2024-01-14T02:32:43.511Z,37.70
2024-01-14T02:35:15.712Z,36.47
2024-01-14T02:37:48.800Z,36.07
2024-01-14T02:40:20.898Z,35.83
2024-01-14T02:42:52.934Z,36.37
2024-01-14T02:45:24.938Z,35.57
2024-01-14T02:47:57.041Z,36.57
2024-01-14T02:50:29.313Z,36.43
2024-01-14T02:53:01.268Z,38.90
2024-01-14T02:55:33.235Z,37.20
2024-01-14T02:58:05.223Z,38.20
2024-01-14T03:00:37.305Z,38.73
2024-01-14T03:03:09.395Z,38.53
2024-01-14T03:05:41.444Z,39.03
2024-01-14T03:08:13.452Z,37.40
2024-01-14T03:10:45.618Z,35.60
2024-01-14T03:13:18.035Z,37.27
2024-01-14T03:15:50.081Z,36.53
2024-01-14T03:18:22.279Z,34.83
2024-01-14T03:20:54.388Z,33.97
2024-01-14T03:23:26.379Z,34.23
2024-01-14T03:25:58.593Z,33.73
2024-01-14T03:28:30.683Z,34.80
2024-01-14T03:31:03.004Z,33.87
2024-01-14T03:33:35.870Z,34.83
2024-01-14T03:36:08.175Z,34.27
2024-01-14T03:38:40.141Z,33.93
2024-01-14T03:41:13.596Z,33.73
2024-01-14T03:43:45.623Z,31.70
2024-01-14T03:46:17.809Z,34.07
2024-01-14T03:48:49.937Z,32.43
2024-01-14T03:51:22.104Z,33.37
2024-01-14T03:53:54.165Z,33.07
2024-01-14T03:56:26.125Z,32.80
2024-01-14T03:58:58.049Z,32.80
2024-01-14T04:01:30.047Z,31.70
2024-01-14T04:04:02.269Z,30.53
2024-01-14T04:06:34.621Z,31.60
2024-01-14T04:09:06.796Z,30.83
2024-01-14T04:11:38.805Z,30.70
2024-01-14T04:14:10.858Z,32.00
2024-01-14T04:16:43.186Z,31.00
2024-01-14T04:19:15.159Z,31.83
2024-01-14T04:21:47.655Z,29.67
2024-01-14T04:24:19.628Z,31.47
2024-01-14T04:26:51.648Z,30.93
2024-01-14T04:29:23.626Z,32.27
2024-01-14T04:31:55.593Z,30.67
2024-01-14T04:34:27.712Z,30.70
2024-01-14T04:36:59.977Z,30.93
2024-01-14T04:39:32.055Z,31.47
2024-01-14T04:42:04.543Z,30.47
2024-01-14T04:44:36.512Z,29.97
2024-01-14T04:47:08.445Z,29.70
2024-01-14T04:49:40.518Z,28.67
2024-01-14T04:52:12.609Z,28.07
2024-01-14T04:54:44.587Z,28.77
2024-01-14T04:57:16.705Z,29.00
2024-01-14T04:59:48.714Z,28.33
2024-01-14T05:02:20.666Z,27.93
2024-01-14T05:04:52.725Z,27.77
2024-01-14T05:07:24.714Z,27.17
2024-01-14T05:09:56.691Z,26.73
2024-01-14T05:12:28.734Z,25.63
2024-01-14T05:15:01.687Z,26.37
2024-01-14T05:17:33.888Z,25.10
2024-01-14T05:20:07.333Z,25.10
2024-01-14T05:22:39.321Z,25.40
2024-01-14T05:25:11.466Z,25.80
2024-01-14T05:27:43.512Z,25.50
2024-01-14T05:30:15.979Z,27.07
2024-01-14T05:32:48.019Z,26.20
2024-01-14T05:35:20.014Z,26.73
2024-01-14T05:37:51.958Z,26.60
2024-01-14T05:40:25.006Z,25.90
2024-01-14T05:42:56.918Z,27.20
2024-01-14T05:45:28.903Z,27.27
2024-01-14T05:48:00.948Z,27.33
2024-01-14T05:50:32.975Z,28.23
2024-01-14T05:53:05.065Z,27.80
2024-01-14T05:55:37.077Z,26.90
2024-01-14T05:58:09.717Z,27.57
2024-01-14T06:00:41.868Z,26.57
2024-01-14T06:03:14.076Z,29.83
2024-01-14T06:05:46.220Z,28.33
2024-01-14T06:08:18.164Z,29.47
2024-01-14T06:10:50.126Z,28.43
2024-01-14T06:13:22.394Z,27.57
2024-01-14T06:15:54.427Z,27.87
2024-01-14T06:18:26.605Z,26.93
2024-01-14T06:21:01.577Z,28.33
2024-01-14T06:23:35.442Z,26.00
2024-01-14T06:26:07.382Z,27.00
2024-01-14T06:28:39.358Z,27.03
2024-01-14T06:31:11.506Z,27.27
2024-01-14T06:33:43.520Z,26.87
2024-01-14T06:36:18.806Z,25.83
2024-01-14T06:38:51.006Z,25.20
2024-01-14T06:41:26.651Z,25.13
2024-01-14T06:43:58.713Z,25.17
2024-01-14T06:46:30.663Z,24.97
2024-01-14T06:49:03.087Z,25.23
2024-01-14T06:51:35.138Z,24.67
2024-01-14T06:54:07.201Z,24.40
2024-01-14T06:56:46.533Z,24.47
2024-01-14T06:59:20.154Z,24.50
2024-01-14T07:01:52.925Z,23.83
2024-01-14T07:04:25.029Z,25.10
2024-01-14T07:06:57.379Z,24.53
2024-01-14T07:09:29.409Z,25.13
2024-01-14T07:12:05.370Z,25.50
2024-01-14T07:14:37.413Z,24.00
2024-01-14T07:17:09.469Z,24.83
2024-01-14T07:19:41.528Z,24.87
2024-01-14T07:22:13.719Z,24.23
2024-01-14T07:24:45.799Z,27.33
2024-01-14T07:27:17.777Z,26.37
2024-01-14T07:29:49.731Z,27.27
2024-01-14T07:32:21.743Z,26.97
2024-01-14T07:34:53.819Z,28.17
2024-01-14T07:37:26.193Z,27.27
2024-01-14T07:39:58.228Z,27.27
2024-01-14T07:42:30.251Z,26.80
2024-01-14T07:45:04.170Z,26.80
2024-01-14T07:47:36.140Z,27.63
2024-01-14T07:50:08.683Z,37.40
2024-01-14T07:52:40.676Z,30.73
2024-01-14T07:55:12.741Z,28.57
2024-01-14T07:57:44.781Z,26.53
2024-01-14T08:00:18.168Z,26.77
2024-01-14T08:02:50.353Z,25.80
2024-01-14T08:05:22.373Z,24.23
2024-01-14T08:07:54.362Z,24.50
2024-01-14T08:10:26.457Z,23.27
2024-01-14T08:12:58.652Z,24.00
2024-01-14T08:15:31.213Z,22.80
2024-01-14T08:18:07.618Z,23.37
2024-01-14T08:20:39.829Z,22.07
2024-01-14T08:23:13.490Z,22.63
2024-01-14T08:25:46.675Z,21.63
2024-01-14T08:28:18.718Z,23.07
2024-01-14T08:30:50.701Z,22.63
2024-01-14T08:33:22.794Z,21.97
2024-01-14T08:35:58.322Z,21.90
2024-01-14T08:38:30.441Z,22.73
2024-01-14T08:41:02.469Z,23.37
2024-01-14T08:43:34.492Z,23.50
2024-01-14T08:46:06.478Z,23.33
2024-01-14T08:48:38.593Z,24.17
2024-01-14T08:51:11.459Z,22.93
2024-01-14T08:53:43.538Z,23.07
2024-01-14T08:56:15.675Z,23.47
2024-01-14T08:58:48.300Z,23.07
2024-01-14T09:01:20.234Z,22.93
2024-01-14T09:03:53.229Z,23.40
2024-01-14T09:06:25.579Z,24.53
2024-01-14T09:08:57.737Z,23.63
2024-01-14T09:11:29.704Z,23.50
2024-01-14T09:14:01.846Z,23.43
2024-01-14T09:16:33.811Z,22.57
2024-01-14T09:19:06.064Z,22.27
2024-01-14T09:21:38.217Z,22.43
2024-01-14T09:24:10.516Z,24.17
2024-01-14T09:26:42.520Z,24.07
2024-01-14T09:29:14.607Z,23.20
2024-01-14T09:31:47.035Z,24.03
2024-01-14T09:34:19.263Z,23.70
2024-01-14T09:36:51.301Z,25.30
2024-01-14T09:39:23.315Z,24.43
2024-01-14T09:42:25.405Z,23.73
2024-01-14T09:45:03.338Z,24.63
2024-01-14T09:47:37.103Z,23.63
2024-01-14T09:50:11.263Z,24.97
2024-01-14T09:52:43.647Z,25.30
2024-01-14T09:55:15.999Z,25.97
2024-01-14T09:57:51.086Z,26.37
2024-01-14T10:00:24.623Z,26.23
2024-01-14T10:02:57.776Z,26.17
2024-01-14T10:05:29.889Z,26.37
2024-01-14T10:08:02.004Z,25.83
2024-01-14T10:10:35.074Z,26.17
2024-01-14T10:13:09.103Z,25.67
2024-01-14T10:15:48.569Z,27.23
2024-01-14T10:18:24.102Z,24.30
2024-01-14T10:20:57.777Z,26.17
2024-01-14T10:23:30.036Z,26.33
2024-01-14T10:26:02.926Z,25.50
2024-01-14T10:28:39.686Z,26.03
2024-01-14T10:31:12.392Z,25.80
2024-01-14T10:33:46.493Z,24.83
2024-01-14T10:36:18.959Z,24.30
2024-01-14T10:38:53.715Z,24.97
2024-01-14T10:41:26.809Z,22.83
2024-01-14T10:43:59.175Z,23.23
2024-01-14T10:46:33.897Z,23.90
2024-01-14T10:49:09.722Z,23.80
2024-01-14T10:51:43.796Z,24.60
2024-01-14T10:54:48.710Z,24.33
2024-01-14T10:57:36.785Z,24.47
2024-01-14T11:00:10.788Z,24.27
2024-01-14T11:02:46.036Z,25.23
2024-01-14T11:05:20.816Z,25.37
2024-01-14T11:07:54.834Z,25.60
2024-01-14T11:10:27.031Z,25.83
2024-01-14T11:13:29.547Z,24.33
2024-01-14T11:16:19.745Z,23.93
2024-01-14T11:19:10.886Z,23.50
2024-01-14T11:22:32.033Z,24.20
2024-01-14T11:25:18.928Z,24.50
2024-01-14T11:27:54.947Z,23.93
2024-01-14T11:30:54.646Z,23.27
2024-01-14T11:33:30.463Z,23.77
2024-01-14T11:36:03.010Z,24.87
2024-01-14T11:38:44.798Z,24.87
2024-01-14T11:41:31.986Z,25.30
2024-01-14T11:44:15.113Z,24.03
2024-01-14T11:46:52.026Z,23.73
2024-01-14T11:49:32.571Z,23.00
2024-01-14T11:52:09.037Z,24.50
2024-01-14T11:54:45.471Z,25.17
2024-01-14T11:57:27.116Z,24.37
2024-01-14T11:59:59.394Z,24.17
2024-01-14T12:02:31.536Z,24.37
2024-01-14T12:05:23.960Z,24.40
2024-01-14T12:07:56.170Z,25.50
2024-01-14T12:10:33.343Z,25.10
2024-01-14T12:13:10.956Z,24.93
2024-01-14T12:15:51.762Z,25.10
2024-01-14T12:18:45.565Z,24.50
2024-01-14T12:21:27.471Z,24.80
2024-01-14T12:24:05.194Z,25.73
2024-01-14T12:26:37.146Z,24.63
2024-01-14T12:29:09.575Z,26.23
2024-01-14T12:31:49.974Z,25.47
2024-01-14T12:34:30.605Z,26.17
2024-01-14T12:37:02.927Z,24.67
2024-01-14T12:39:36.073Z,25.30
2024-01-14T12:42:08.263Z,24.87
2024-01-14T12:44:48.147Z,24.83
2024-01-14T12:47:20.494Z,25.80
2024-01-14T12:49:55.948Z,24.50
2024-01-14T12:52:28.164Z,25.00
2024-01-14T12:55:00.388Z,24.70
2024-01-14T12:57:32.513Z,24.00
2024-01-14T13:00:04.947Z,24.07
2024-01-14T13:02:37.046Z,23.43
2024-01-14T13:05:09.086Z,23.07
2024-01-14T13:07:42.193Z,23.07
2024-01-14T13:10:14.355Z,24.37
2024-01-14T13:12:47.244Z,22.90
2024-01-14T13:15:19.806Z,24.83
2024-01-14T13:17:53.326Z,23.60
2024-01-14T13:20:25.461Z,22.57
2024-01-14T13:22:57.538Z,21.50
2024-01-14T13:25:29.515Z,23.07
2024-01-14T13:28:01.468Z,21.33
2024-01-14T13:30:33.565Z,22.60
2024-01-14T13:33:06.233Z,22.60
2024-01-14T13:35:38.329Z,21.83
2024-01-14T13:38:10.290Z,22.50
2024-01-14T13:40:42.221Z,23.47
2024-01-14T13:43:14.371Z,22.03
2024-01-14T13:45:46.307Z,21.57
2024-01-14T13:48:18.645Z,21.90
2024-01-14T13:50:50.729Z,20.40
2024-01-14T13:53:22.723Z,22.17
2024-01-14T13:55:54.723Z,21.23
2024-01-14T13:58:26.711Z,20.77
2024-01-14T14:00:58.959Z,21.07
2024-01-14T14:03:31.068Z,21.37
2024-01-14T14:06:03.636Z,22.03
2024-01-14T14:08:35.742Z,22.27
2024-01-14T14:11:07.726Z,22.77
2024-01-14T14:13:39.718Z,22.60
2024-01-14T14:16:14.982Z,23.13
2024-01-14T14:18:49.516Z,22.80
2024-01-14T14:21:21.937Z,23.20
2024-01-14T14:23:53.978Z,23.10
2024-01-14T14:26:29.124Z,23.10
2024-01-14T14:29:01.154Z,22.73
2024-01-14T14:31:43.915Z,22.37
2024-01-14T14:34:21.747Z,22.33
2024-01-14T14:36:54.168Z,22.97
2024-01-14T14:39:27.541Z,22.63
2024-01-14T14:41:59.600Z,23.30
2024-01-14T14:44:31.586Z,21.60
2024-01-14T14:47:05.465Z,22.60
2024-01-14T14:49:37.565Z,22.20
2024-01-14T14:52:09.644Z,21.83
2024-01-14T14:54:41.746Z,21.13
2024-01-14T14:57:13.762Z,21.90
2024-01-14T14:59:45.722Z,22.20
2024-01-14T15:02:17.719Z,21.40
2024-01-14T15:04:50.016Z,21.73
2024-01-14T15:07:22.151Z,21.97
2024-01-14T15:09:55.065Z,22.33
2024-01-14T15:12:27.956Z,21.70
2024-01-14T15:15:00.029Z,21.27
2024-01-14T15:17:31.999Z,22.33
2024-01-14T15:20:06.607Z,21.97
2024-01-14T15:22:40.428Z,22.40
2024-01-14T15:25:12.421Z,21.10
2024-01-14T15:27:44.686Z,22.03
2024-01-14T15:30:17.000Z,22.87
2024-01-14T15:32:49.321Z,22.97
2024-01-14T15:35:21.737Z,22.10
2024-01-14T15:37:53.854Z,22.13
2024-01-14T15:40:27.183Z,22.13
2024-01-14T15:43:00.829Z,21.20
2024-01-14T15:45:32.922Z,22.17
2024-01-14T15:48:06.999Z,21.57
2024-01-14T15:50:39.068Z,22.50
2024-01-14T15:53:11.003Z,22.27
2024-01-14T15:55:43.094Z,23.70
2024-01-14T15:58:15.063Z,21.87
2024-01-14T16:01:00.119Z,23.57
2024-01-14T16:03:44.213Z,22.67
2024-01-14T16:06:18.300Z,23.10
2024-01-14T16:08:50.270Z,23.17
2024-01-14T16:11:22.346Z,22.80
2024-01-14T16:13:54.390Z,22.60
2024-01-14T16:16:27.492Z,23.57
2024-01-14T16:18:59.563Z,21.97
2024-01-14T16:21:31.718Z,23.57
2024-01-14T16:24:04.325Z,22.40
2024-01-14T16:26:38.244Z,22.37
2024-01-14T16:29:10.340Z,21.80
2024-01-14T16:31:42.507Z,22.67
2024-01-14T16:34:14.668Z,23.30
2024-01-14T16:36:48.489Z,22.93
2024-01-14T16:39:20.622Z,24.43
2024-01-14T16:41:52.603Z,23.43
2024-01-14T16:44:25.388Z,23.17
2024-01-14T16:46:57.408Z,22.40
2024-01-14T16:49:29.488Z,23.47
2024-01-14T16:52:01.718Z,23.30
2024-01-14T16:54:34.357Z,23.67
2024-01-14T16:57:06.418Z,22.37
2024-01-14T16:59:38.441Z,23.17
2024-01-14T17:02:10.473Z,23.87
2024-01-14T17:04:42.462Z,24.17
2024-01-14T17:07:14.429Z,22.97
2024-01-14T17:09:46.449Z,22.70
2024-01-14T17:12:19.015Z,23.90
2024-01-14T17:14:51.068Z,23.90
2024-01-14T17:17:23.448Z,23.97
2024-01-14T17:19:56.128Z,23.67
2024-01-14T17:22:28.127Z,22.83
2024-01-14T17:25:00.117Z,23.73
2024-01-14T17:27:32.644Z,23.47
2024-01-14T17:30:05.188Z,22.77
2024-01-14T17:32:37.338Z,22.97
2024-01-14T17:35:15.328Z,23.30
2024-01-14T17:37:48.856Z,22.87
2024-01-14T17:40:20.841Z,23.67
2024-01-14T17:42:52.790Z,22.47
2024-01-14T17:45:24.747Z,24.67
2024-01-14T17:47:56.797Z,24.47
2024-01-14T17:50:28.791Z,22.17
2024-01-14T17:53:05.522Z,22.20
2024-01-14T17:55:38.107Z,23.53
2024-01-14T17:58:10.046Z,24.37
2024-01-14T18:00:42.188Z,25.43
2024-01-14T18:03:14.613Z,24.07
2024-01-14T18:05:47.919Z,24.67
2024-01-14T18:08:19.923Z,25.17
2024-01-14T18:10:52.101Z,25.53
2024-01-14T18:13:24.246Z,25.20
2024-01-14T18:15:57.671Z,25.13
2024-01-14T18:18:29.891Z,26.00
2024-01-14T18:21:02.735Z,26.33
2024-01-14T18:23:34.804Z,25.70
2024-01-14T18:26:06.778Z,25.93
2024-01-14T18:28:38.831Z,25.83
2024-01-14T18:31:15.885Z,26.93
2024-01-14T18:33:49.020Z,28.10
2024-01-14T18:36:22.847Z,26.60
2024-01-14T18:38:54.897Z,26.53
2024-01-14T18:41:27.983Z,26.57
2024-01-14T18:43:59.947Z,26.47
2024-01-14T18:46:33.129Z,26.97
2024-01-14T18:49:05.179Z,26.33
2024-01-14T18:51:41.316Z,27.30
2024-01-14T18:54:13.593Z,26.77
2024-01-14T18:56:46.712Z,27.63
2024-01-14T18:59:18.791Z,27.33
2024-01-14T19:01:50.750Z,27.70
2024-01-14T19:04:23.674Z,27.97
2024-01-14T19:06:55.834Z,26.97
2024-01-14T19:09:28.270Z,27.53
2024-01-14T19:12:00.335Z,25.80
2024-01-14T19:14:32.396Z,27.37
2024-01-14T19:17:05.176Z,26.90
2024-01-14T19:19:37.190Z,26.97
2024-01-14T19:22:09.517Z,26.03
2024-01-14T19:24:44.889Z,26.40
2024-01-14T19:27:17.150Z,27.37
2024-01-14T19:29:49.566Z,27.33
2024-01-14T19:32:21.848Z,27.57
2024-01-14T19:34:54.133Z,28.50
2024-01-14T19:37:28.079Z,28.53
2024-01-14T19:40:00.328Z,27.97
2024-01-14T19:42:33.627Z,28.03
2024-01-14T19:45:06.481Z,29.27
2024-01-14T19:47:39.484Z,30.03
2024-01-14T19:50:12.235Z,30.27
2024-01-14T19:52:44.406Z,30.00
2024-01-14T19:55:16.886Z,29.73
2024-01-14T19:57:49.337Z,30.53
2024-01-14T20:00:23.202Z,30.27
2024-01-14T20:02:55.753Z,28.83
2024-01-14T20:05:27.814Z,31.07
2024-01-14T20:07:59.751Z,29.13
2024-01-14T20:10:32.200Z,28.53
2024-01-14T20:13:04.673Z,29.20
2024-01-14T20:15:36.795Z,28.40
2024-01-14T20:18:08.927Z,28.40
2024-01-14T20:20:40.993Z,29.17
2024-01-14T20:23:13.064Z,28.90
2024-01-14T20:25:45.114Z,29.10
2024-01-14T20:28:17.153Z,28.37
2024-01-14T20:30:50.713Z,28.63
2024-01-14T20:33:25.541Z,28.27
2024-01-14T20:35:58.857Z,30.50
2024-01-14T20:38:31.370Z,28.90
2024-01-14T20:41:03.522Z,28.47
2024-01-14T20:43:35.539Z,29.07
2024-01-14T20:46:07.781Z,30.03
2024-01-14T20:48:39.896Z,28.80
2024-01-14T20:51:12.029Z,30.40
2024-01-14T20:53:44.739Z,29.83
2024-01-14T20:56:16.931Z,29.63
2024-01-14T20:58:48.907Z,29.03
2024-01-14T21:01:22.117Z,31.43
2024-01-14T21:03:55.628Z,30.27
2024-01-14T21:06:28.902Z,30.40
2024-01-14T21:09:01.339Z,29.87
2024-01-14T21:11:33.939Z,30.03
2024-01-14T21:14:05.921Z,29.67
2024-01-14T21:16:39.645Z,29.70
2024-01-14T21:19:12.907Z,29.23
2024-01-14T21:21:44.993Z,28.13
2024-01-14T21:24:19.054Z,29.50
2024-01-14T21:26:51.312Z,30.23
2024-01-14T21:29:23.300Z,27.33
2024-01-14T21:31:56.038Z,28.33
2024-01-14T21:34:28.032Z,28.23
2024-01-14T21:37:00.098Z,28.37
2024-01-14T21:39:32.496Z,27.93
2024-01-14T21:42:04.805Z,26.67
2024-01-14T21:44:36.851Z,26.30
2024-01-14T21:47:09.169Z,35.10
2024-01-14T21:49:41.349Z,27.93
2024-01-14T21:52:13.470Z,26.83
2024-01-14T21:54:45.573Z,25.83
2024-01-14T21:57:18.216Z,25.40
2024-01-14T21:59:50.192Z,24.23
2024-01-14T22:02:22.309Z,24.37
2024-01-14T22:04:54.502Z,24.40
2024-01-14T22:07:26.532Z,24.33
2024-01-14T22:09:58.819Z,23.80
2024-01-14T22:12:30.852Z,22.33
2024-01-14T22:15:03.018Z,22.77
2024-01-14T22:17:35.091Z,22.20
2024-01-14T22:20:08.701Z,21.23
2024-01-14T22:22:40.931Z,20.87
2024-01-14T22:25:12.992Z,19.47
2024-01-14T22:27:45.047Z,20.37
2024-01-14T22:30:17.256Z,19.37
2024-01-14T22:32:49.509Z,18.30
2024-01-14T22:35:22.466Z,16.87
2024-01-14T22:37:55.481Z,17.13
2024-01-14T22:40:27.547Z,17.67
2024-01-14T22:42:59.555Z,17.37
2024-01-14T22:45:31.824Z,16.43
2024-01-14T22:48:04.555Z,16.03
2024-01-14T22:50:36.669Z,16.27
2024-01-14T22:53:08.695Z,15.93
2024-01-14T22:55:40.738Z,15.40
2024-01-14T22:58:14.004Z,13.97
2024-01-14T23:00:46.544Z,13.67
2024-01-14T23:03:18.769Z,13.57
2024-01-14T23:05:50.845Z,13.93
2024-01-14T23:08:26.023Z,13.77
2024-01-14T23:11:00.002Z,15.43
2024-01-14T23:13:32.450Z,15.17
2024-01-14T23:16:05.576Z,16.07
2024-01-14T23:18:37.781Z,17.83
2024-01-14T23:21:09.938Z,16.93
2024-01-14T23:23:41.966Z,18.30
2024-01-14T23:26:13.982Z,19.07
2024-01-14T23:28:46.043Z,19.30
2024-01-14T23:31:18.326Z,19.70
2024-01-14T23:33:53.232Z,19.63
2024-01-14T23:36:26.244Z,19.40
2024-01-14T23:38:58.570Z,19.57
2024-01-14T23:41:30.637Z,19.03
2024-01-14T23:44:02.660Z,20.23
2024-01-14T23:46:34.666Z,19.67
2024-01-14T23:49:07.328Z,21.53
2024-01-14T23:51:39.448Z,21.40
2024-01-14T23:54:11.759Z,21.43
2024-01-14T23:56:44.201Z,21.73
2024-01-14T23:59:16.243Z,21.37
